Time;durP1;ratioP1;P1;durP2;ratioP2;P2;SDS_P1;SDS_P2;PMS_P1;PMS_P2;Temp;Humidity;BMP_temperature;BMP_pressure;BME280_temperature;BME280_humidity;BME280_pressure;Samples;Min_cycle;Max_cycle;Signal;HPM_P1;HPM_P2
2023/12/06 00:01:48;;;;;;;0.30;0.30;;;;;;;7.53;65.24;101051.66;5070409;28;20447;-67
2023/12/06 00:04:13;;;;;;;0.32;0.32;;;;;;;7.74;65.10;101055.03;5071038;28;20470;-67
2023/12/06 00:06:39;;;;;;;0.30;0.30;;;;;;;7.38;66.31;101057.16;5071120;28;20040;-67
2023/12/06 00:09:04;;;;;;;0.30;0.30;;;;;;;8.07;63.59;101054.28;5071157;28;20029;-67
2023/12/06 00:11:29;;;;;;;0.40;0.40;;;;;;;8.41;62.69;101054.16;5070994;28;20083;-67
2023/12/06 00:13:55;;;;;;;0.32;0.32;;;;;;;8.19;62.42;101064.19;5070804;28;20120;-68
2023/12/06 00:16:20;;;;;;;0.40;0.40;;;;;;;7.93;63.80;101069.50;5070744;28;20152;-67
2023/12/06 00:18:46;;;;;;;0.25;0.25;;;;;;;8.45;63.35;101072.25;5070760;28;20563;-68
2023/12/06 00:21:11;;;;;;;0.32;0.32;;;;;;;8.20;63.47;101065.81;5070375;28;20056;-67
2023/12/06 00:23:37;;;;;;;0.40;0.40;;;;;;;7.87;65.00;101071.13;5071158;28;20078;-68
2023/12/06 00:26:02;;;;;;;0.40;0.40;;;;;;;8.12;64.69;101067.91;5068873;28;20033;-68
2023/12/06 00:28:28;;;;;;;0.30;0.30;;;;;;;7.13;67.82;101069.38;5070697;28;20136;-67
2023/12/06 00:30:53;;;;;;;0.32;0.32;;;;;;;7.63;65.79;101074.34;5070548;28;20070;-67
2023/12/06 00:33:18;;;;;;;0.40;0.40;;;;;;;7.21;68.11;101077.25;5070812;28;20111;-67
2023/12/06 00:35:44;;;;;;;0.30;0.30;;;;;;;7.76;66.20;101078.91;5071080;28;20104;-68
2023/12/06 00:38:10;;;;;;;0.40;0.40;;;;;;;8.14;65.85;101079.22;5070272;28;20049;-67
2023/12/06 00:40:35;;;;;;;0.25;0.25;;;;;;;9.22;61.29;101082.31;5070353;28;20048;-68
2023/12/06 00:43:03;;;;;;;0.30;0.30;;;;;;;8.09;64.52;101081.66;5070503;28;20044;-67
2023/12/06 00:45:29;;;;;;;0.38;0.38;;;;;;;7.60;67.15;101090.78;5070616;28;20123;-68
2023/12/06 00:47:55;;;;;;;0.30;0.30;;;;;;;8.20;65.55;101086.41;5071139;28;20144;-67
2023/12/06 00:50:20;;;;;;;0.30;0.30;;;;;;;8.18;64.82;101083.13;5069021;28;20051;-68
2023/12/06 00:52:45;;;;;;;0.40;0.40;;;;;;;9.19;61.47;101094.25;5070528;28;20115;-68
2023/12/06 00:55:11;;;;;;;0.40;0.40;;;;;;;8.55;63.48;101095.97;5070371;28;20044;-68
2023/12/06 00:57:36;;;;;;;0.40;0.40;;;;;;;8.27;64.49;101096.16;5070616;28;20037;-67
2023/12/06 01:00:02;;;;;;;0.32;0.32;;;;;;;7.87;66.27;101111.25;5070863;28;20027;-67
2023/12/06 01:02:27;;;;;;;0.30;0.30;;;;;;;8.24;65.42;101104.53;5054210;28;20037;-68
2023/12/06 01:04:53;;;;;;;0.30;0.30;;;;;;;7.56;67.72;101112.78;5050233;28;20043;-67
2023/12/06 01:07:18;;;;;;;0.40;0.40;;;;;;;7.51;68.25;101110.69;5050292;28;20051;-67
2023/12/06 01:09:44;;;;;;;0.40;0.40;;;;;;;8.72;64.55;101114.13;5050495;28;20155;-67
2023/12/06 01:12:10;;;;;;;0.40;0.40;;;;;;;9.23;62.81;101114.25;5050233;28;20057;-66
2023/12/06 01:14:35;;;;;;;0.43;0.43;;;;;;;9.01;63.90;101112.84;5069491;28;20472;-67
2023/12/06 01:17:01;;;;;;;0.40;0.40;;;;;;;8.59;63.91;101127.47;5073842;28;20032;-67
2023/12/06 01:19:26;;;;;;;0.30;0.30;;;;;;;8.96;63.24;101117.19;5074087;28;20040;-67
2023/12/06 01:21:51;;;;;;;0.30;0.30;;;;;;;8.23;64.15;101124.34;5074106;28;20045;-67
2023/12/06 01:24:17;;;;;;;0.38;0.38;;;;;;;8.44;65.60;101121.50;5073945;28;20028;-67
2023/12/06 01:26:42;;;;;;;0.40;0.40;;;;;;;8.18;66.02;101125.94;5074439;28;20116;-68
2023/12/06 01:29:09;;;;;;;0.30;0.30;;;;;;;8.01;68.07;101128.19;5055928;28;20041;-67
2023/12/06 01:31:34;;;;;;;0.30;0.30;;;;;;;8.28;66.12;101129.91;5073433;28;20041;-67
2023/12/06 01:34:00;;;;;;;0.43;0.43;;;;;;;7.44;69.01;101138.41;5073500;28;20036;-67
2023/12/06 01:36:26;;;;;;;0.40;0.40;;;;;;;8.71;65.38;101125.00;5073922;28;20518;-67
2023/12/06 01:38:51;;;;;;;0.40;0.40;;;;;;;8.07;66.60;101126.53;5073747;28;20043;-68
2023/12/06 01:41:17;;;;;;;0.30;0.30;;;;;;;8.24;66.67;101135.84;5072947;28;20131;-67
2023/12/06 01:43:43;;;;;;;0.30;0.30;;;;;;;7.96;67.27;101135.97;5073436;28;20075;-67
2023/12/06 01:46:09;;;;;;;0.30;0.30;;;;;;;8.85;65.00;101138.22;5073347;28;20105;-67
2023/12/06 01:48:36;;;;;;;0.30;0.30;;;;;;;9.33;62.13;101135.28;5073170;28;20029;-68
2023/12/06 01:51:02;;;;;;;0.30;0.30;;;;;;;8.29;66.02;101139.63;5074101;28;20427;-68
2023/12/06 01:53:27;;;;;;;0.30;0.30;;;;;;;9.29;63.96;101139.41;5073536;28;20041;-66
2023/12/06 01:55:53;;;;;;;0.43;0.43;;;;;;;8.77;64.04;101137.59;5073164;28;20064;-67
2023/12/06 01:58:19;;;;;;;0.30;0.30;;;;;;;8.92;64.13;101148.13;5073339;28;20047;-67
2023/12/06 02:00:45;;;;;;;0.43;0.43;;;;;;;9.09;64.47;101143.97;5087968;28;20040;-68
2023/12/06 02:03:11;;;;;;;0.50;0.50;;;;;;;8.72;65.37;101143.59;5073164;28;20131;-67
2023/12/06 02:05:36;;;;;;;0.30;0.30;;;;;;;8.84;66.20;101149.94;5073697;28;20113;-68
2023/12/06 02:08:04;;;;;;;0.35;0.35;;;;;;;8.12;66.73;101156.22;5073209;28;20511;-67
2023/12/06 02:10:29;;;;;;;0.40;0.40;;;;;;;8.85;66.44;101151.63;5073118;28;20483;-68
2023/12/06 02:12:54;;;;;;;0.30;0.30;;;;;;;8.46;67.16;101154.25;5073134;28;20035;-68
2023/12/06 02:15:21;;;;;;;0.50;0.50;;;;;;;8.65;66.91;101157.97;5070865;28;20068;-67
2023/12/06 02:17:48;;;;;;;0.40;0.40;;;;;;;8.27;67.85;101156.91;5073423;28;20028;-67
2023/12/06 02:20:13;;;;;;;0.40;0.40;;;;;;;7.76;69.48;101156.50;5072863;28;20349;-67
2023/12/06 02:22:39;;;;;;;0.30;0.30;;;;;;;7.68;70.60;101165.50;5073051;28;20046;-67
2023/12/06 02:25:11;;;;;;;0.32;0.32;;;;;;;7.84;69.37;101162.47;5072912;28;20558;-67
2023/12/06 02:27:39;;;;;;;0.50;0.50;;;;;;;8.08;69.19;101155.78;5073268;28;20358;-67
2023/12/06 02:30:06;;;;;;;0.30;0.30;;;;;;;7.98;68.15;101164.19;5073497;28;20043;-68
2023/12/06 02:32:31;;;;;;;0.40;0.40;;;;;;;7.93;69.45;101172.00;5065449;28;20029;-67
2023/12/06 02:34:59;;;;;;;0.30;0.30;;;;;;;7.86;69.49;101173.81;5056252;28;20040;-67
2023/12/06 02:37:25;;;;;;;0.50;0.50;;;;;;;7.73;70.05;101180.94;5072861;28;20467;-67
2023/12/06 02:39:52;;;;;;;0.30;0.30;;;;;;;7.24;70.62;101177.56;5072812;28;20032;-68
2023/12/06 02:42:17;;;;;;;0.40;0.40;;;;;;;8.19;69.26;101176.63;5071070;28;20131;-68
2023/12/06 02:44:43;;;;;;;0.40;0.40;;;;;;;7.97;69.34;101175.94;5073051;28;20099;-68
2023/12/06 02:47:09;;;;;;;0.30;0.30;;;;;;;7.52;71.65;101178.38;5072587;28;20046;-68
2023/12/06 02:49:34;;;;;;;0.40;0.40;;;;;;;7.86;69.66;101173.00;5072512;28;20040;-68
2023/12/06 02:52:01;;;;;;;0.40;0.40;;;;;;;6.98;74.13;101184.38;5072382;28;20123;-68
2023/12/06 02:54:26;;;;;;;0.38;0.38;;;;;;;7.82;70.69;101179.78;5072431;28;20171;-68
2023/12/06 02:56:52;;;;;;;0.30;0.30;;;;;;;7.65;70.85;101183.78;5072693;28;20107;-68
2023/12/06 02:59:17;;;;;;;0.45;0.45;;;;;;;8.06;69.84;101178.44;5072198;28;20491;-67
2023/12/06 03:01:47;;;;;;;0.40;0.40;;;;;;;8.12;69.79;101175.75;5062571;28;20123;-67
2023/12/06 03:04:12;;;;;;;0.40;0.40;;;;;;;8.68;67.93;101173.66;5052208;28;20063;-68
2023/12/06 03:06:38;;;;;;;0.32;0.32;;;;;;;8.54;67.33;101170.13;5052032;28;20439;-68
2023/12/06 03:09:04;;;;;;;0.30;0.30;;;;;;;8.72;67.82;101170.38;5053590;28;20029;-67
2023/12/06 03:11:30;;;;;;;0.30;0.30;;;;;;;8.11;69.52;101176.78;5072394;28;20739;-68
2023/12/06 03:13:55;;;;;;;0.47;0.47;;;;;;;8.79;67.56;101165.84;5071832;28;20139;-67
2023/12/06 03:16:20;;;;;;;0.30;0.30;;;;;;;9.42;66.21;101168.88;5071916;28;20115;-67
2023/12/06 03:18:46;;;;;;;0.40;0.40;;;;;;;8.82;66.40;101172.66;5071708;28;20385;-68
2023/12/06 03:21:11;;;;;;;0.30;0.30;;;;;;;8.21;69.71;101177.25;5071527;28;20032;-66
2023/12/06 03:23:36;;;;;;;0.30;0.30;;;;;;;8.77;67.04;101178.59;5072200;28;20042;-67
2023/12/06 03:26:02;;;;;;;0.45;0.45;;;;;;;9.02;67.82;101178.81;5071681;28;20099;-67
2023/12/06 03:28:28;;;;;;;0.47;0.47;;;;;;;8.85;68.60;101185.63;5071331;28;20032;-67
2023/12/06 03:30:53;;;;;;;0.47;0.47;;;;;;;8.64;68.77;101191.16;5071244;28;20127;-67
2023/12/06 03:33:18;;;;;;;0.30;0.30;;;;;;;8.69;68.03;101180.66;5071579;28;20513;-67
2023/12/06 03:35:44;;;;;;;0.30;0.30;;;;;;;8.23;69.59;101193.09;5071389;28;20119;-67
2023/12/06 03:38:10;;;;;;;0.40;0.40;;;;;;;8.75;68.89;101191.38;5070972;28;20654;-68
2023/12/06 03:40:35;;;;;;;0.35;0.35;;;;;;;8.09;69.00;101186.03;5051171;28;20061;-68
2023/12/06 03:43:01;;;;;;;0.40;0.40;;;;;;;8.38;69.30;101199.13;5051268;28;20059;-67
2023/12/06 03:45:26;;;;;;;0.30;0.30;;;;;;;9.10;66.54;101193.88;5065856;28;20140;-67
2023/12/06 03:47:51;;;;;;;0.40;0.40;;;;;;;9.19;66.25;101195.31;5071951;28;20306;-67
2023/12/06 03:50:17;;;;;;;0.20;0.20;;;;;;;8.55;68.44;101198.56;5071082;28;20037;-67
2023/12/06 03:52:42;;;;;;;0.30;0.30;;;;;;;9.01;67.77;101208.50;5069629;28;20041;-67
2023/12/06 03:55:08;;;;;;;0.30;0.30;;;;;;;9.03;66.92;101201.91;5071190;28;20040;-67
2023/12/06 03:57:33;;;;;;;0.30;0.30;;;;;;;9.60;64.58;101190.50;5071202;28;20039;-67
2023/12/06 03:59:58;;;;;;;0.38;0.38;;;;;;;9.02;66.03;101197.56;5071498;28;20633;-67
2023/12/06 04:02:24;;;;;;;0.30;0.30;;;;;;;9.38;65.14;101192.59;5070553;28;20417;-68
2023/12/06 04:04:49;;;;;;;0.35;0.35;;;;;;;8.78;66.96;101192.84;5070909;28;20200;-67
2023/12/06 04:07:15;;;;;;;0.30;0.30;;;;;;;7.78;70.91;101210.63;5070879;28;20044;-68
2023/12/06 04:09:41;;;;;;;0.30;0.30;;;;;;;9.06;67.12;101195.31;5071036;28;20040;-68
2023/12/06 04:12:07;;;;;;;0.20;0.20;;;;;;;8.66;68.14;101203.34;5070928;28;20027;-67
2023/12/06 04:14:33;;;;;;;0.38;0.38;;;;;;;8.72;68.22;101209.72;5071755;28;20525;-67
2023/12/06 04:16:58;;;;;;;0.40;0.40;;;;;;;9.05;66.61;101207.06;5070866;28;20068;-67
2023/12/06 04:19:23;;;;;;;0.30;0.30;;;;;;;9.75;64.16;101212.53;5070803;28;20124;-69
2023/12/06 04:21:50;;;;;;;0.52;0.52;;;;;;;9.79;64.54;101208.41;5070825;28;20116;-68
2023/12/06 04:24:15;;;;;;;0.40;0.40;;;;;;;9.20;65.97;101200.47;5070656;28;20458;-68
2023/12/06 04:26:40;;;;;;;0.30;0.30;;;;;;;9.55;64.64;101206.41;5071329;28;20032;-68
2023/12/06 04:29:05;;;;;;;0.30;0.30;;;;;;;9.23;65.81;101215.31;5070526;28;20127;-68
2023/12/06 04:31:31;;;;;;;0.40;0.40;;;;;;;9.14;67.12;101217.38;5070869;28;20108;-67
2023/12/06 04:33:56;;;;;;;0.40;0.40;;;;;;;9.34;65.58;101220.88;5070525;28;20025;-68
2023/12/06 04:36:22;;;;;;;0.43;0.43;;;;;;;10.29;62.75;101221.06;5070647;28;20040;-67
2023/12/06 04:38:47;;;;;;;0.35;0.35;;;;;;;9.81;63.81;101225.13;5071059;28;20036;-66
2023/12/06 04:41:13;;;;;;;0.45;0.45;;;;;;;9.12;67.00;101230.16;5070235;28;20562;-67
2023/12/06 04:43:38;;;;;;;0.40;0.40;;;;;;;9.94;64.24;101225.09;5070627;28;20060;-67
2023/12/06 04:46:03;;;;;;;0.30;0.30;;;;;;;9.51;65.40;101227.44;5070755;28;20032;-68
2023/12/06 04:48:29;;;;;;;0.40;0.40;;;;;;;9.70;65.26;101229.28;5071183;28;20124;-67
2023/12/06 04:50:54;;;;;;;0.35;0.35;;;;;;;9.75;64.91;101228.63;5074028;28;20076;-67
2023/12/06 04:53:19;;;;;;;0.30;0.30;;;;;;;10.29;63.45;101237.19;5073649;28;20054;-68
2023/12/06 04:55:45;;;;;;;0.55;0.55;;;;;;;10.87;61.20;101226.31;5073496;28;20123;-68
2023/12/06 04:58:11;;;;;;;0.43;0.43;;;;;;;10.69;61.22;101224.34;5073709;28;20048;-67
2023/12/06 05:00:36;;;;;;;0.30;0.30;;;;;;;10.55;61.14;101237.03;5072698;28;20029;-67
2023/12/06 05:03:02;;;;;;;0.30;0.30;;;;;;;10.97;59.82;101235.53;5069141;28;20047;-67
2023/12/06 05:05:28;;;;;;;0.30;0.30;;;;;;;10.06;63.73;101233.31;5072729;28;20033;-67
2023/12/06 05:07:55;;;;;;;0.35;0.35;;;;;;;11.25;59.84;101241.31;5073056;28;20405;-69
2023/12/06 05:10:21;;;;;;;0.38;0.38;;;;;;;11.67;57.72;101242.41;5056903;28;20053;-67
2023/12/06 05:12:46;;;;;;;0.20;0.20;;;;;;;11.65;58.00;101236.41;5053685;28;20029;-68
2023/12/06 05:15:12;;;;;;;0.32;0.32;;;;;;;11.40;59.00;101241.78;5073625;28;20031;-67
2023/12/06 05:17:37;;;;;;;0.40;0.40;;;;;;;10.97;60.42;101245.44;5073095;28;20112;-67
2023/12/06 05:20:03;;;;;;;0.43;0.43;;;;;;;11.22;59.81;101240.94;5072981;28;20063;-68
2023/12/06 05:22:28;;;;;;;0.40;0.40;;;;;;;11.75;58.04;101249.38;5073090;28;20033;-68
2023/12/06 05:24:53;;;;;;;0.40;0.40;;;;;;;11.11;59.86;101252.38;5072783;28;20040;-68
2023/12/06 05:27:19;;;;;;;0.30;0.30;;;;;;;10.93;60.86;101247.75;5073168;28;20066;-67
2023/12/06 05:29:44;;;;;;;0.30;0.30;;;;;;;11.60;58.96;101252.38;5073351;28;20035;-68
2023/12/06 05:32:10;;;;;;;0.30;0.30;;;;;;;10.39;63.13;101252.84;5072776;28;20067;-67
2023/12/06 05:34:35;;;;;;;0.40;0.40;;;;;;;10.31;65.57;101251.22;5072670;28;20064;-68
2023/12/06 05:37:00;;;;;;;0.30;0.30;;;;;;;10.55;64.61;101246.97;5072641;28;20074;-67
2023/12/06 05:39:26;;;;;;;0.30;0.30;;;;;;;10.01;65.39;101252.72;5072331;28;20083;-68
2023/12/06 05:41:51;;;;;;;0.40;0.40;;;;;;;9.08;69.46;101257.59;5072413;28;20509;-67
2023/12/06 05:44:17;;;;;;;0.40;0.40;;;;;;;9.50;69.79;101263.38;5071469;28;20041;-67
2023/12/06 05:46:42;;;;;;;0.30;0.30;;;;;;;10.60;67.01;101265.94;5071795;28;20032;-68
2023/12/06 05:49:08;;;;;;;0.40;0.40;;;;;;;9.42;68.28;101260.91;5071950;28;20037;-68
2023/12/06 05:51:34;;;;;;;0.40;0.40;;;;;;;9.69;68.93;101264.34;5072351;28;20464;-68
2023/12/06 05:53:59;;;;;;;0.47;0.47;;;;;;;9.51;70.54;101267.69;5072956;28;20063;-68
2023/12/06 05:56:25;;;;;;;0.22;0.22;;;;;;;10.53;66.65;101270.53;5072134;28;20040;-67
2023/12/06 05:58:50;;;;;;;0.30;0.30;;;;;;;10.02;68.08;101272.34;5071883;28;20135;-68
2023/12/06 06:01:15;;;;;;;0.20;0.20;;;;;;;10.46;66.39;101273.25;5072121;28;20151;-68
2023/12/06 06:03:41;;;;;;;0.55;0.55;;;;;;;10.24;67.82;101276.47;5072291;28;20032;-68
2023/12/06 06:06:07;;;;;;;0.20;0.20;;;;;;;9.12;71.70;101273.03;5072444;28;20038;-67
2023/12/06 06:08:34;;;;;;;0.32;0.32;;;;;;;10.49;68.20;101272.84;5069873;28;20031;-68
2023/12/06 06:11:00;;;;;;;0.40;0.40;;;;;;;10.29;68.15;101282.84;5055678;28;20041;-67
2023/12/06 06:13:29;;;;;;;0.30;0.30;;;;;;;10.17;68.86;101291.75;5072833;28;20040;-67
2023/12/06 06:15:55;;;;;;;0.22;0.22;;;;;;;9.85;69.02;101287.28;5072848;28;20498;-66
2023/12/06 06:18:21;;;;;;;0.30;0.30;;;;;;;10.65;67.76;101294.88;5057979;28;20062;-67
2023/12/06 06:20:46;;;;;;;0.40;0.40;;;;;;;9.81;69.15;101292.22;5063471;28;20054;-67
2023/12/06 06:23:12;;;;;;;0.30;0.30;;;;;;;9.56;70.12;101292.06;5072247;28;20040;-67
2023/12/06 06:25:37;;;;;;;0.20;0.20;;;;;;;10.13;68.82;101294.03;5072162;28;20115;-67
2023/12/06 06:28:03;;;;;;;0.20;0.20;;;;;;;10.34;68.01;101303.66;5070794;28;20478;-67
2023/12/06 06:30:29;;;;;;;0.30;0.30;;;;;;;9.86;68.95;101299.66;5072339;28;20032;-66
2023/12/06 06:32:54;;;;;;;0.20;0.20;;;;;;;9.89;70.27;101304.59;5071421;28;20440;-67
2023/12/06 06:35:19;;;;;;;0.40;0.40;;;;;;;9.97;68.77;101307.88;5066105;28;20424;-67
2023/12/06 06:37:46;;;;;;;0.30;0.30;;;;;;;9.19;70.85;101299.88;5072168;28;20445;-67
2023/12/06 06:40:11;;;;;;;0.30;0.30;;;;;;;9.31;72.01;101311.66;5071844;28;20081;-67
2023/12/06 06:42:37;;;;;;;0.30;0.30;;;;;;;9.80;70.00;101316.59;5072287;28;20040;-67
2023/12/06 06:45:03;;;;;;;0.20;0.20;;;;;;;10.16;68.74;101314.28;5072721;28;20033;-68
2023/12/06 06:47:29;;;;;;;0.32;0.32;;;;;;;9.08;72.04;101321.94;5060701;28;20037;-68
2023/12/06 06:49:54;;;;;;;0.22;0.22;;;;;;;10.17;67.95;101327.50;5071295;28;20067;-67
2023/12/06 06:52:20;;;;;;;0.30;0.30;;;;;;;9.81;68.67;101321.75;5072178;28;20044;-67
2023/12/06 06:54:45;;;;;;;0.40;0.40;;;;;;;10.26;67.32;101336.16;5060947;28;20059;-67
2023/12/06 06:57:11;;;;;;;0.30;0.30;;;;;;;10.36;67.31;101333.84;5057487;28;20094;-66
2023/12/06 06:59:36;;;;;;;0.20;0.20;;;;;;;9.60;69.85;101341.59;5061958;28;20020;-67
2023/12/06 07:02:02;;;;;;;0.30;0.30;;;;;;;10.27;69.22;101330.56;5065416;28;20131;-68
2023/12/06 07:04:27;;;;;;;0.30;0.30;;;;;;;11.07;64.89;101332.69;5071629;28;20054;-66
2023/12/06 07:06:53;;;;;;;0.50;0.50;;;;;;;10.84;65.71;101339.63;5071432;28;20036;-67
2023/12/06 07:09:18;;;;;;;0.30;0.30;;;;;;;10.82;65.59;101330.97;5071463;28;20029;-65
2023/12/06 07:11:44;;;;;;;0.30;0.30;;;;;;;11.06;64.05;101346.34;5063513;28;20108;-66
2023/12/06 07:14:09;;;;;;;0.40;0.40;;;;;;;10.85;65.73;101344.78;5067367;28;20139;-67
2023/12/06 07:16:34;;;;;;;0.32;0.32;;;;;;;10.61;65.41;101354.41;5059248;28;20041;-67
2023/12/06 07:19:00;;;;;;;0.30;0.30;;;;;;;11.52;63.34;101349.53;5052023;28;20062;-66
2023/12/06 07:21:26;;;;;;;0.30;0.30;;;;;;;10.96;64.74;101354.06;5058847;28;20041;-67
2023/12/06 07:23:51;;;;;;;0.30;0.30;;;;;;;10.75;65.88;101354.38;5060747;28;20028;-69
2023/12/06 07:26:18;;;;;;;0.30;0.30;;;;;;;10.90;63.59;101361.13;5055688;28;20033;-66
2023/12/06 07:28:44;;;;;;;0.30;0.30;;;;;;;11.34;63.85;101352.19;5056943;28;20040;-66
2023/12/06 07:31:09;;;;;;;0.20;0.20;;;;;;;11.65;61.84;101354.84;5061741;28;20044;-67
2023/12/06 07:33:35;;;;;;;0.45;0.45;;;;;;;11.72;61.79;101358.31;5064328;28;20418;-67
2023/12/06 07:36:01;;;;;;;0.40;0.40;;;;;;;11.01;63.91;101357.75;5063922;28;20167;-67
2023/12/06 07:38:27;;;;;;;0.50;0.50;;;;;;;10.77;65.47;101363.06;5057640;28;20557;-67
2023/12/06 07:40:52;;;;;;;0.40;0.40;;;;;;;11.55;62.96;101367.13;5053188;28;20049;-68
2023/12/06 07:43:18;;;;;;;0.20;0.20;;;;;;;11.77;61.12;101365.75;5065177;28;20518;-67
2023/12/06 07:45:44;;;;;;;0.30;0.30;;;;;;;12.08;60.42;101371.88;5055933;28;20060;-67
2023/12/06 07:48:10;;;;;;;0.30;0.30;;;;;;;11.62;61.23;101375.97;5063495;28;20098;-67
2023/12/06 07:50:35;;;;;;;0.30;0.30;;;;;;;11.45;61.95;101376.53;5054535;28;20041;-67
2023/12/06 07:53:01;;;;;;;0.30;0.30;;;;;;;12.29;59.32;101378.72;5065180;28;20410;-68
2023/12/06 07:55:26;;;;;;;0.40;0.40;;;;;;;11.60;61.46;101383.44;5049277;28;20029;-68
2023/12/06 07:57:53;;;;;;;0.20;0.20;;;;;;;12.27;59.49;101381.63;5065465;28;20410;-68
2023/12/06 08:00:19;;;;;;;0.30;0.30;;;;;;;12.42;58.91;101383.16;5063358;28;20028;-68
2023/12/06 08:02:45;;;;;;;0.43;0.43;;;;;;;12.31;58.63;101379.31;5064244;28;20387;-67
2023/12/06 08:05:11;;;;;;;0.50;0.50;;;;;;;12.48;58.45;101384.94;5054903;28;20045;-68
2023/12/06 08:07:37;;;;;;;0.20;0.20;;;;;;;11.85;60.20;101387.00;5063347;28;20040;-67
2023/12/06 08:10:12;;;;;;;0.30;0.30;;;;;;;12.04;59.47;101381.44;5054931;28;20049;-67
2023/12/06 08:12:38;;;;;;;0.30;0.30;;;;;;;12.26;59.50;101384.56;5058683;28;20117;-67
2023/12/06 08:15:07;;;;;;;0.35;0.35;;;;;;;11.57;61.65;101384.72;5058231;28;20409;-67
2023/12/06 08:17:32;;;;;;;0.40;0.40;;;;;;;11.57;62.01;101394.66;5053274;28;20036;-69
2023/12/06 08:19:58;;;;;;;0.40;0.40;;;;;;;11.86;60.75;101396.72;5060411;28;20458;-70
2023/12/06 08:22:23;;;;;;;0.30;0.30;;;;;;;12.01;60.60;101399.94;5058810;28;20405;-69
2023/12/06 08:24:50;;;;;;;0.30;0.30;;;;;;;11.65;62.46;101406.00;5066768;28;20040;-67
2023/12/06 08:27:17;;;;;;;0.40;0.40;;;;;;;11.27;63.38;101405.19;5057029;28;20043;-69
2023/12/06 08:29:42;;;;;;;0.38;0.38;;;;;;;10.81;65.35;101394.66;5052403;28;20024;-68
2023/12/06 08:32:08;;;;;;;0.30;0.30;;;;;;;11.35;63.38;101399.56;5056986;28;20044;-68
2023/12/06 08:34:33;;;;;;;0.20;0.20;;;;;;;11.14;63.82;101398.03;5049815;28;20102;-69
2023/12/06 08:36:58;;;;;;;0.20;0.20;;;;;;;11.16;63.92;101397.81;5059389;28;20044;-67
2023/12/06 08:39:24;;;;;;;0.30;0.30;;;;;;;11.90;61.76;101392.56;5056731;28;20064;-69
2023/12/06 08:41:49;;;;;;;0.40;0.40;;;;;;;11.84;62.22;101396.97;5050611;28;20045;-67
2023/12/06 08:44:14;;;;;;;0.20;0.20;;;;;;;11.78;60.67;101402.38;5048414;28;20128;-66
2023/12/06 08:46:42;;;;;;;0.28;0.28;;;;;;;11.60;61.80;101400.41;5060843;28;20041;-66
2023/12/06 08:49:07;;;;;;;0.30;0.30;;;;;;;11.55;62.28;101411.03;5054175;28;20485;-67
2023/12/06 08:51:32;;;;;;;0.40;0.40;;;;;;;12.37;60.46;101410.75;5059188;28;20114;-66
2023/12/06 08:53:58;;;;;;;0.20;0.20;;;;;;;12.05;60.66;101417.28;5050134;28;20172;-66
2023/12/06 08:56:23;;;;;;;0.30;0.30;;;;;;;11.84;61.54;101413.13;5067410;28;20040;-67
2023/12/06 08:58:49;;;;;;;0.40;0.40;;;;;;;11.41;63.08;101417.53;5057234;28;20029;-66
2023/12/06 09:01:14;;;;;;;0.28;0.28;;;;;;;11.60;61.84;101418.44;5059984;28;20146;-68
2023/12/06 09:03:39;;;;;;;0.30;0.30;;;;;;;11.72;61.88;101417.56;5064274;28;20081;-66
2023/12/06 09:06:05;;;;;;;0.40;0.40;;;;;;;11.39;63.29;101417.75;5057880;28;20143;-66
2023/12/06 09:08:30;;;;;;;0.40;0.40;;;;;;;12.08;60.09;101414.97;5061983;28;20060;-66
2023/12/06 09:10:56;;;;;;;0.30;0.30;;;;;;;12.09;60.76;101415.78;5062424;28;20041;-66
2023/12/06 09:13:21;;;;;;;0.30;0.30;;;;;;;11.71;61.88;101417.78;5065810;28;20065;-67
2023/12/06 09:15:47;;;;;;;0.30;0.30;;;;;;;11.79;62.38;101426.41;5061670;28;20039;-67
2023/12/06 09:18:12;;;;;;;0.30;0.30;;;;;;;11.91;62.20;101430.03;5065315;28;20458;-66
2023/12/06 09:20:37;;;;;;;0.20;0.20;;;;;;;11.73;62.17;101431.84;5060329;28;20529;-68
2023/12/06 09:23:03;;;;;;;0.30;0.30;;;;;;;11.37;63.03;101437.84;5064192;28;20033;-68
2023/12/06 09:25:28;;;;;;;0.20;0.20;;;;;;;11.47;63.51;101441.72;5065796;28;20449;-67
2023/12/06 09:27:54;;;;;;;0.35;0.35;;;;;;;12.30;59.50;101448.53;5057126;28;20059;-66
2023/12/06 09:30:19;;;;;;;0.50;0.50;;;;;;;12.07;60.90;101448.34;5063442;28;20112;-67
2023/12/06 09:32:45;;;;;;;0.22;0.22;;;;;;;11.66;62.02;101458.81;5065829;28;20037;-66
2023/12/06 09:35:11;;;;;;;0.30;0.30;;;;;;;11.80;62.43;101456.84;5061849;28;20068;-66
2023/12/06 09:37:36;;;;;;;0.30;0.30;;;;;;;10.79;65.18;101460.44;5061130;28;20037;-67
2023/12/06 09:40:02;;;;;;;0.30;0.30;;;;;;;11.52;63.02;101462.59;5068758;28;20512;-68
2023/12/06 09:42:29;;;;;;;0.45;0.45;;;;;;;11.02;64.32;101468.84;5069715;28;20067;-67
2023/12/06 09:44:57;;;;;;;0.20;0.20;;;;;;;12.09;61.24;101465.13;5068486;28;20700;-67
2023/12/06 09:47:23;;;;;;;0.47;0.47;;;;;;;11.72;61.64;101474.09;5070692;28;20488;-67
2023/12/06 09:49:49;;;;;;;0.20;0.20;;;;;;;11.22;64.45;101469.59;5070550;28;20121;-67
2023/12/06 09:52:23;;;;;;;0.38;0.38;;;;;;;11.43;63.35;101469.28;5068147;28;20054;-67
2023/12/06 09:54:50;;;;;;;0.30;0.30;;;;;;;11.76;62.93;101467.22;5063418;28;20041;-66
2023/12/06 09:57:16;;;;;;;0.30;0.30;;;;;;;11.73;63.28;101473.06;5066362;28;20021;-67
2023/12/06 09:59:42;;;;;;;0.20;0.20;;;;;;;13.00;58.35;101476.03;5068267;28;20435;-67
2023/12/06 10:02:07;;;;;;;0.30;0.30;;;;;;;12.83;58.19;101473.13;5062815;28;20068;-67
2023/12/06 10:04:34;;;;;;;0.30;0.30;;;;;;;12.38;59.79;101469.81;5069405;28;20040;-66
2023/12/06 10:07:00;;;;;;;0.20;0.20;;;;;;;12.71;57.93;101469.50;5068508;28;20037;-67
2023/12/06 10:09:26;;;;;;;0.30;0.30;;;;;;;12.55;59.95;101478.19;5060537;28;20041;-67
2023/12/06 10:11:51;;;;;;;0.40;0.40;;;;;;;12.60;59.65;101485.59;5066764;28;20013;-68
2023/12/06 10:14:20;;;;;;;0.30;0.30;;;;;;;13.15;57.36;101485.41;5070305;28;20071;-66
2023/12/06 10:16:47;;;;;;;0.40;0.40;;;;;;;12.22;59.22;101485.75;5067617;28;20048;-67
2023/12/06 10:19:19;;;;;;;0.40;0.40;;;;;;;11.96;62.41;101481.38;5067900;28;20063;-67
2023/12/06 10:21:49;;;;;;;0.30;0.30;;;;;;;13.20;57.59;101485.59;5069986;28;20056;-69
2023/12/06 10:24:15;;;;;;;0.47;0.47;;;;;;;12.59;59.43;101490.16;5067949;28;20025;-69
2023/12/06 10:26:40;;;;;;;0.40;0.40;;;;;;;11.81;60.83;101488.94;5068194;28;20038;-68
2023/12/06 10:29:06;;;;;;;0.20;0.20;;;;;;;12.57;58.84;101491.44;5070466;28;20090;-70
2023/12/06 10:31:45;;;;;;;0.30;0.30;;;;;;;12.58;59.71;101483.13;5067471;28;20146;-69
2023/12/06 10:34:11;;;;;;;0.40;0.40;;;;;;;12.35;59.13;101483.75;5069261;28;20119;-67
2023/12/06 10:36:37;;;;;;;0.40;0.40;;;;;;;12.79;58.54;101484.56;5069874;28;20532;-68
2023/12/06 10:39:09;;;;;;;0.50;0.50;;;;;;;12.25;59.30;101477.22;5068855;28;20020;-68
2023/12/06 10:41:38;;;;;;;0.20;0.20;;;;;;;12.95;57.52;101481.28;5068291;28;20177;-69
2023/12/06 10:44:03;;;;;;;0.40;0.40;;;;;;;12.27;60.41;101475.13;5064550;28;20037;-69
2023/12/06 10:46:30;;;;;;;0.30;0.30;;;;;;;12.55;59.88;101480.88;5064496;28;20094;-67
2023/12/06 10:48:59;;;;;;;0.30;0.30;;;;;;;13.33;57.28;101470.25;5070549;28;20036;-67
2023/12/06 10:51:25;;;;;;;0.20;0.20;;;;;;;13.59;55.94;101472.59;5059005;28;20024;-69
2023/12/06 10:53:52;;;;;;;0.50;0.50;;;;;;;13.15;58.24;101468.38;5068970;28;20368;-67
2023/12/06 10:56:18;;;;;;;0.28;0.28;;;;;;;12.58;60.01;101466.94;5066852;28;20044;-66
2023/12/06 10:58:45;;;;;;;0.30;0.30;;;;;;;12.69;60.51;101477.00;5066018;28;20028;-67
2023/12/06 11:01:13;;;;;;;0.47;0.47;;;;;;;12.33;59.67;101466.16;5063485;28;20182;-66
2023/12/06 11:03:38;;;;;;;0.25;0.25;;;;;;;13.04;57.79;101469.16;5058212;28;20079;-67
2023/12/06 11:06:17;;;;;;;0.30;0.30;;;;;;;13.28;57.93;101472.81;5056299;28;20040;-68
2023/12/06 11:08:48;;;;;;;0.38;0.38;;;;;;;13.50;56.22;101472.09;5060799;28;20090;-67
2023/12/06 11:11:35;;;;;;;0.30;0.30;;;;;;;13.07;56.99;101482.22;5061324;28;20135;-67
2023/12/06 11:14:19;;;;;;;0.20;0.20;;;;;;;12.71;59.52;101490.25;5062080;28;20537;-65
2023/12/06 11:17:06;;;;;;;0.38;0.38;;;;;;;13.08;58.08;101481.16;5063277;28;20079;-67
2023/12/06 11:19:34;;;;;;;0.40;0.40;;;;;;;12.15;61.02;101485.78;5062096;28;20032;-66
2023/12/06 11:22:02;;;;;;;0.30;0.30;;;;;;;12.50;59.77;101480.69;5062164;28;20680;-66
2023/12/06 11:24:28;;;;;;;0.40;0.40;;;;;;;13.49;56.92;101475.00;5064703;28;20060;-68